Time;durP1;ratioP1;P1;durP2;ratioP2;P2;SDS_P1;SDS_P2;PMS_P1;PMS_P2;Temp;Humidity;BMP_temperature;BMP_pressure;BME280_temperature;BME280_humidity;BME280_pressure;Samples;Min_cycle;Max_cycle;Signal;HPM_P1;HPM_P2
2022/07/04 00:00:07;;;;;;;2.17;1.97;;;28.50;43.80;;;;;;5117554;27;20445;-45
2022/07/04 00:02:34;;;;;;;1.90;1.80;;;28.50;44.00;;;;;;5123191;27;20475;-43
2022/07/04 00:04:59;;;;;;;2.20;2.10;;;28.50;44.00;;;;;;5115520;27;20533;-43
2022/07/04 00:07:25;;;;;;;2.70;2.50;;;28.50;44.10;;;;;;5122570;27;21371;-44
2022/07/04 00:09:51;;;;;;;2.30;2.10;;;28.50;44.00;;;;;;5105722;27;20702;-43
2022/07/04 00:12:17;;;;;;;4.33;2.47;;;28.50;43.90;;;;;;5117164;27;20186;-44
2022/07/04 00:14:43;;;;;;;2.70;2.03;;;28.50;44.00;;;;;;5116277;27;20233;-43
2022/07/04 00:17:08;;;;;;;2.53;2.20;;;28.30;44.20;;;;;;5126917;27;20198;-45
2022/07/04 00:19:34;;;;;;;2.43;2.23;;;28.30;44.40;;;;;;5110652;27;20870;-44
2022/07/04 00:22:00;;;;;;;3.20;2.30;;;28.30;44.50;;;;;;5108179;28;20926;-44
2022/07/04 00:24:25;;;;;;;2.40;2.20;;;28.20;44.70;;;;;;5111280;28;20714;-46
2022/07/04 00:26:51;;;;;;;2.80;2.00;;;28.20;44.80;;;;;;5123261;28;20239;-45
2022/07/04 00:29:17;;;;;;;3.33;1.83;;;28.20;44.90;;;;;;5113915;28;20197;-45
2022/07/04 00:31:43;;;;;;;2.17;1.90;;;28.10;44.90;;;;;;5107271;28;20194;-44
2022/07/04 00:34:09;;;;;;;2.60;2.20;;;28.20;44.90;;;;;;5109524;28;20570;-43
2022/07/04 00:36:35;;;;;;;2.17;1.80;;;28.20;44.90;;;;;;5119562;28;20808;-47
2022/07/04 00:39:00;;;;;;;3.00;1.83;;;28.20;44.90;;;;;;5113068;28;20443;-44
2022/07/04 00:41:26;;;;;;;3.10;2.30;;;28.20;44.90;;;;;;5116036;28;20336;-43
2022/07/04 00:44:10;;;;;;;2.33;2.13;;;28.20;44.80;;;;;;5110075;28;20609;-45
2022/07/04 00:46:35;;;;;;;2.30;2.10;;;28.20;44.80;;;;;;5124411;28;20186;-44
2022/07/04 00:49:03;;;;;;;1.87;1.60;;;28.20;45.00;;;;;;5124583;28;20480;-44
2022/07/04 00:51:29;;;;;;;4.63;1.70;;;28.20;45.00;;;;;;5115919;27;20194;-45
2022/07/04 00:53:55;;;;;;;2.93;1.90;;;28.20;45.00;;;;;;5121452;27;21000;-47
2022/07/04 00:56:25;;;;;;;1.83;1.73;;;28.10;45.00;;;;;;5125325;27;20198;-43
2022/07/04 00:58:52;;;;;;;2.03;1.80;;;28.00;45.00;;;;;;5117327;27;20449;-44
2022/07/04 01:01:19;;;;;;;3.40;1.93;;;28.00;45.20;;;;;;5120992;27;20467;-43
2022/07/04 01:03:45;;;;;;;2.43;2.20;;;28.00;45.10;;;;;;5122565;27;20459;-43
2022/07/04 01:06:13;;;;;;;3.37;1.83;;;28.00;45.30;;;;;;5119867;27;20565;-44
2022/07/04 01:08:40;;;;;;;3.03;2.10;;;27.90;45.30;;;;;;5117071;27;20431;-43
2022/07/04 01:11:07;;;;;;;2.80;1.80;;;28.00;45.30;;;;;;5114489;27;20436;-44
2022/07/04 01:13:32;;;;;;;3.00;2.17;;;27.90;45.20;;;;;;5118859;27;20502;-44
2022/07/04 01:15:58;;;;;;;1.93;1.70;;;27.90;45.20;;;;;;5121393;27;20979;-43
2022/07/04 01:18:24;;;;;;;3.57;1.90;;;28.00;45.20;;;;;;5119145;27;20559;-43
2022/07/04 01:20:49;;;;;;;2.33;2.13;;;28.00;45.20;;;;;;5117393;27;20194;-43
2022/07/04 01:23:15;;;;;;;2.97;2.13;;;27.90;45.40;;;;;;5122083;27;20190;-43
2022/07/04 01:25:41;;;;;;;3.10;2.27;;;27.80;45.50;;;;;;5115448;27;20197;-43
2022/07/04 01:28:07;;;;;;;2.50;2.30;;;27.80;45.60;;;;;;5125620;27;20431;-44
2022/07/04 01:30:35;;;;;;;2.77;1.70;;;27.80;45.60;;;;;;5104671;28;20202;-43
2022/07/04 01:33:00;;;;;;;2.80;2.20;;;27.80;45.60;;;;;;5116424;27;20222;-44
2022/07/04 01:35:26;;;;;;;2.33;2.00;;;27.80;45.50;;;;;;5117585;27;20447;-45
2022/07/04 01:37:52;;;;;;;4.40;2.00;;;27.90;45.60;;;;;;5116669;27;20214;-44
2022/07/04 01:40:18;;;;;;;2.17;2.03;;;27.90;45.50;;;;;;5114885;27;20659;-43
2022/07/04 01:42:44;;;;;;;2.37;2.10;;;27.90;45.50;;;;;;5117952;27;20190;-43
2022/07/04 01:45:11;;;;;;;4.47;1.80;;;27.90;45.50;;;;;;5119300;27;20494;-43
2022/07/04 01:47:37;;;;;;;3.43;2.00;;;27.90;45.40;;;;;;5112563;27;20202;-46
2022/07/04 01:50:04;;;;;;;2.30;2.10;;;27.90;45.40;;;;;;5117923;27;20468;-47
2022/07/04 01:52:30;;;;;;;2.40;1.90;;;27.90;45.30;;;;;;5122626;27;20444;-46
2022/07/04 01:54:56;;;;;;;3.37;2.00;;;27.90;45.30;;;;;;5111663;27;20506;-45
2022/07/04 01:57:22;;;;;;;2.97;2.27;;;27.80;45.40;;;;;;5115397;27;20908;-47
2022/07/04 02:02:31;;;;;;;2.50;1.90;;;27.80;45.50;;;;;;5114136;27;20240;-47
2022/07/04 02:04:57;;;;;;;2.10;2.00;;;27.70;45.60;;;;;;5122259;27;20431;-46
2022/07/04 02:07:23;;;;;;;4.20;1.87;;;27.70;45.70;;;;;;5118332;27;20565;-47
2022/07/04 02:09:49;;;;;;;4.27;2.30;;;27.70;45.80;;;;;;5111999;27;22247;-47
2022/07/04 02:14:58;;;;;;;2.53;2.17;;;27.60;45.70;;;;;;5112414;27;20489;-47
2022/07/04 02:17:24;;;;;;;2.43;1.97;;;27.60;45.70;;;;;;5121205;27;20440;-46
2022/07/04 02:19:50;;;;;;;2.17;1.97;;;27.60;45.70;;;;;;5116509;27;20195;-44
2022/07/04 02:22:16;;;;;;;4.27;1.80;;;27.60;45.70;;;;;;5110441;27;20440;-47
2022/07/04 02:24:41;;;;;;;2.10;1.70;;;27.60;45.70;;;;;;5123186;27;20648;-47
2022/07/04 02:27:08;;;;;;;2.60;1.87;;;27.50;45.80;;;;;;5121023;27;20195;-46
2022/07/04 02:29:34;;;;;;;2.33;2.00;;;27.50;46.00;;;;;;5117774;27;20235;-44
2022/07/04 02:32:00;;;;;;;2.27;2.07;;;27.50;46.00;;;;;;5115083;27;20527;-48
2022/07/04 02:34:26;;;;;;;2.30;2.10;;;27.50;45.80;;;;;;5122390;27;20594;-45
2022/07/04 02:36:51;;;;;;;3.07;1.90;;;27.60;45.80;;;;;;5112317;27;20186;-43
2022/07/04 02:39:17;;;;;;;2.23;2.00;;;27.60;46.30;;;;;;5111328;27;20444;-45
2022/07/04 02:41:43;;;;;;;1.90;1.80;;;27.60;45.50;;;;;;5110810;27;20187;-47
2022/07/04 02:44:09;;;;;;;2.20;2.00;;;27.60;45.60;;;;;;5109770;27;20182;-47
2022/07/04 02:46:35;;;;;;;2.80;2.07;;;27.60;45.70;;;;;;5118599;27;20190;-47
2022/07/04 02:49:01;;;;;;;1.97;1.87;;;27.50;45.60;;;;;;5126031;27;20436;-44
2022/07/04 02:51:27;;;;;;;3.87;2.10;;;27.60;45.80;;;;;;5115455;27;20440;-47
2022/07/04 02:53:53;;;;;;;4.20;2.13;;;27.60;45.70;;;;;;5120130;27;21043;-44
2022/07/04 02:56:18;;;;;;;2.20;2.00;;;27.60;45.70;;;;;;5121139;27;20191;-44
2022/07/04 02:58:44;;;;;;;2.90;2.23;;;27.70;45.70;;;;;;5123874;27;20203;-46
2022/07/04 03:01:12;;;;;;;2.63;1.93;;;27.70;45.60;;;;;;5120061;27;20341;-43
2022/07/04 03:03:38;;;;;;;2.73;2.17;;;27.70;45.60;;;;;;5113995;27;20195;-44
2022/07/04 03:06:03;;;;;;;5.73;2.43;;;27.60;45.50;;;;;;5123537;27;20910;-48
2022/07/04 03:08:29;;;;;;;4.10;1.97;;;27.70;45.60;;;;;;5112274;27;20455;-47
2022/07/04 03:10:55;;;;;;;4.30;2.00;;;27.70;45.50;;;;;;5115187;27;20559;-43
2022/07/04 03:13:20;;;;;;;1.87;1.63;;;27.70;45.30;;;;;;5121544;27;20801;-46
2022/07/04 03:15:46;;;;;;;6.77;2.30;;;27.60;45.40;;;;;;5120420;27;20220;-46
2022/07/04 03:18:12;;;;;;;3.13;1.83;;;27.60;45.50;;;;;;5121367;27;20651;-46
2022/07/04 03:20:37;;;;;;;3.47;1.90;;;27.60;45.50;;;;;;5118131;27;20194;-45
2022/07/04 03:23:03;;;;;;;2.47;2.27;;;27.60;45.50;;;;;;5118581;27;20202;-44
2022/07/04 03:25:29;;;;;;;2.43;1.90;;;27.60;45.40;;;;;;5120804;27;20191;-45
2022/07/04 03:27:55;;;;;;;2.20;2.00;;;27.60;45.40;;;;;;5117061;27;20189;-47
2022/07/04 03:30:20;;;;;;;2.80;1.93;;;27.60;45.40;;;;;;5126050;27;20230;-44
2022/07/04 03:32:46;;;;;;;2.33;1.63;;;27.60;45.40;;;;;;5116806;27;20220;-43
2022/07/04 03:35:12;;;;;;;1.97;1.77;;;27.60;45.50;;;;;;5110847;27;20757;-46
2022/07/04 03:37:38;;;;;;;2.03;1.83;;;27.60;45.40;;;;;;5118324;27;20186;-47
2022/07/04 03:40:04;;;;;;;2.27;2.07;;;27.60;45.40;;;;;;5121765;27;20225;-46
2022/07/04 03:42:29;;;;;;;3.20;2.13;;;27.60;45.40;;;;;;5117036;27;20567;-45
2022/07/04 03:44:55;;;;;;;3.27;1.97;;;27.60;45.40;;;;;;5110528;27;20437;-43
2022/07/04 03:47:21;;;;;;;5.00;2.20;;;27.60;45.10;;;;;;5108987;27;20194;-48
2022/07/04 03:49:46;;;;;;;3.90;2.00;;;27.50;44.90;;;;;;5108525;27;20206;-45
2022/07/04 03:52:12;;;;;;;5.30;2.10;;;27.50;45.00;;;;;;5123015;27;20194;-44
2022/07/04 03:54:38;;;;;;;2.50;2.20;;;27.40;45.00;;;;;;5118734;27;20365;-46
2022/07/04 03:57:04;;;;;;;4.13;1.90;;;27.40;45.20;;;;;;5120556;27;20707;-43
2022/07/04 03:59:29;;;;;;;3.80;2.00;;;27.30;45.20;;;;;;5116331;27;20190;-44
2022/07/04 04:01:55;;;;;;;3.40;2.17;;;27.30;45.40;;;;;;5110864;27;20464;-47
2022/07/04 04:07:04;;;;;;;4.87;2.50;;;27.20;45.70;;;;;;5110649;27;20209;-47
2022/07/04 04:09:30;;;;;;;2.20;2.10;;;27.10;45.80;;;;;;5121571;27;20443;-45
2022/07/04 04:11:56;;;;;;;2.87;2.27;;;27.10;46.00;;;;;;5117333;27;20277;-44
2022/07/04 04:14:22;;;;;;;3.23;1.87;;;27.10;46.10;;;;;;5115383;27;20222;-46
2022/07/04 04:16:47;;;;;;;4.00;2.43;;;27.00;46.30;;;;;;5114895;27;20197;-44
2022/07/04 04:19:13;;;;;;;3.67;2.63;;;27.00;46.20;;;;;;5121565;27;20194;-44
2022/07/04 04:21:39;;;;;;;2.30;1.97;;;27.00;46.30;;;;;;5114691;27;20202;-47
2022/07/04 04:24:04;;;;;;;2.50;1.90;;;27.00;46.40;;;;;;5110753;28;20190;-44
2022/07/04 04:26:30;;;;;;;2.70;2.10;;;27.00;46.40;;;;;;5110266;28;20198;-43
2022/07/04 04:28:56;;;;;;;7.00;2.43;;;27.00;46.50;;;;;;5118604;28;20190;-43
2022/07/04 04:31:22;;;;;;;2.23;2.03;;;27.00;46.50;;;;;;5124608;28;20756;-43
2022/07/04 04:33:47;;;;;;;2.97;2.33;;;26.90;46.40;;;;;;5111767;28;20488;-44
2022/07/04 04:36:13;;;;;;;2.77;2.17;;;26.90;46.50;;;;;;5111219;28;20250;-43
2022/07/04 04:38:39;;;;;;;2.40;2.13;;;26.80;46.60;;;;;;5110953;28;20669;-43
2022/07/04 04:41:04;;;;;;;2.87;2.60;;;26.80;46.60;;;;;;5115046;28;20189;-43
2022/07/04 04:43:30;;;;;;;3.97;3.23;;;26.80;46.70;;;;;;5114366;28;20189;-44
2022/07/04 04:45:56;;;;;;;6.47;2.40;;;26.70;46.50;;;;;;5118951;28;20637;-43
2022/07/04 04:48:21;;;;;;;3.87;1.80;;;26.70;46.70;;;;;;5121110;28;20182;-43
2022/07/04 04:50:47;;;;;;;8.07;2.60;;;26.70;46.80;;;;;;5115295;28;20197;-43
2022/07/04 04:53:13;;;;;;;9.93;2.40;;;26.70;46.80;;;;;;5117277;28;20206;-43
2022/07/04 04:55:39;;;;;;;2.90;2.30;;;26.60;46.70;;;;;;5112756;28;20182;-44
2022/07/04 04:58:05;;;;;;;2.53;2.30;;;26.50;47.00;;;;;;5108369;28;20183;-43
2022/07/04 05:00:31;;;;;;;4.93;2.00;;;26.50;47.00;;;;;;5113462;28;20436;-44
2022/07/04 05:02:56;;;;;;;3.17;2.50;;;26.50;47.40;;;;;;5110413;28;20202;-44
2022/07/04 05:05:22;;;;;;;2.47;2.27;;;26.50;46.80;;;;;;5120245;28;20918;-44
2022/07/04 05:07:48;;;;;;;3.03;2.20;;;26.50;46.80;;;;;;5117003;28;20221;-43
2022/07/04 05:10:15;;;;;;;2.93;2.30;;;26.50;46.90;;;;;;5111512;28;20202;-44
2022/07/04 05:12:42;;;;;;;6.80;2.50;;;26.50;47.00;;;;;;5114911;28;20444;-44
2022/07/04 05:15:08;;;;;;;2.80;1.80;;;26.50;46.90;;;;;;5122873;28;20612;-43
2022/07/04 05:17:33;;;;;;;3.80;2.00;;;26.50;47.10;;;;;;5119931;28;20440;-45
2022/07/04 05:19:59;;;;;;;3.20;2.50;;;26.50;47.10;;;;;;5110549;28;20515;-44
2022/07/04 05:22:25;;;;;;;4.60;2.23;;;26.60;47.20;;;;;;5117606;28;20266;-44
2022/07/04 05:24:50;;;;;;;6.63;2.40;;;26.60;47.00;;;;;;5107862;28;20202;-44
2022/07/04 05:27:16;;;;;;;2.60;2.40;;;26.70;47.10;;;;;;5110867;28;20187;-43
2022/07/04 05:29:41;;;;;;;2.53;2.33;;;26.60;47.10;;;;;;5118067;28;20639;-43
2022/07/04 05:32:07;;;;;;;2.93;2.03;;;26.60;47.00;;;;;;5102933;28;20278;-44
2022/07/04 05:34:33;;;;;;;4.70;2.17;;;26.60;47.00;;;;;;5113871;28;20597;-43
2022/07/04 05:37:00;;;;;;;2.33;2.23;;;26.70;47.10;;;;;;5119962;28;20202;-44
2022/07/04 05:39:26;;;;;;;2.00;1.77;;;26.70;47.30;;;;;;5125887;27;20444;-44
2022/07/04 05:41:51;;;;;;;2.70;2.10;;;26.60;47.20;;;;;;5113711;27;20470;-44
2022/07/04 05:44:17;;;;;;;9.07;2.40;;;26.60;47.30;;;;;;5125037;27;20535;-44
2022/07/04 05:46:42;;;;;;;4.40;3.00;;;26.70;47.20;;;;;;5121425;27;20198;-44
2022/07/04 05:49:08;;;;;;;4.07;2.07;;;26.70;47.30;;;;;;5114827;27;20199;-44
2022/07/04 05:51:34;;;;;;;3.13;1.87;;;26.70;47.10;;;;;;5120543;27;20277;-44
2022/07/04 05:53:59;;;;;;;3.33;2.40;;;26.70;47.00;;;;;;5111640;27;20217;-44
2022/07/04 05:56:25;;;;;;;2.33;2.13;;;26.70;46.80;;;;;;5112854;27;20194;-44
2022/07/04 05:58:52;;;;;;;3.20;2.13;;;26.70;46.90;;;;;;5110733;27;20637;-45
2022/07/04 06:01:18;;;;;;;3.17;2.30;;;26.70;46.80;;;;;;5117483;27;20226;-45
2022/07/04 06:03:43;;;;;;;2.43;2.23;;;26.80;46.80;;;;;;5121896;27;20952;-45
2022/07/04 06:06:09;;;;;;;2.07;1.90;;;26.70;46.60;;;;;;5116040;27;20729;-44
2022/07/04 06:08:35;;;;;;;2.30;2.10;;;26.80;46.70;;;;;;5118806;27;20196;-44
2022/07/04 06:11:03;;;;;;;2.63;2.40;;;26.80;46.60;;;;;;5124421;27;20218;-47
2022/07/04 06:13:28;;;;;;;2.07;1.87;;;26.90;46.70;;;;;;5124382;27;20486;-48
2022/07/04 06:15:54;;;;;;;3.73;2.07;;;27.00;46.30;;;;;;5115555;27;20443;-45
2022/07/04 06:18:20;;;;;;;2.37;2.17;;;27.00;46.50;;;;;;5117707;27;20296;-44
2022/07/04 06:20:46;;;;;;;2.80;2.07;;;27.00;46.30;;;;;;5121622;27;20861;-44
2022/07/04 06:23:11;;;;;;;5.37;2.23;;;27.10;46.20;;;;;;5121710;27;20190;-45
2022/07/04 06:25:37;;;;;;;4.40;1.97;;;27.10;46.20;;;;;;5125463;27;20615;-46
2022/07/04 06:28:03;;;;;;;7.40;2.03;;;27.10;46.00;;;;;;5108237;27;20213;-47
2022/07/04 06:30:29;;;;;;;3.00;2.10;;;27.10;46.00;;;;;;5106352;27;20794;-45
2022/07/04 06:32:57;;;;;;;4.43;2.60;;;27.10;45.80;;;;;;5101179;27;20198;-45
2022/07/04 06:35:45;;;;;;;3.23;2.00;;;27.20;45.70;;;;;;5102970;27;20184;-45
2022/07/04 06:38:16;;;;;;;6.03;2.20;;;27.20;46.00;;;;;;5099365;27;20979;-44
2022/07/04 06:40:41;;;;;;;2.30;2.10;;;27.20;45.80;;;;;;5112939;27;20842;-47
2022/07/04 06:43:07;;;;;;;3.37;2.20;;;27.20;46.10;;;;;;5112855;27;20443;-46
2022/07/04 06:45:34;;;;;;;2.40;2.13;;;27.30;46.10;;;;;;5120010;27;20218;-44
2022/07/04 06:48:00;;;;;;;2.57;1.83;;;27.40;46.20;;;;;;5125370;27;20198;-43
2022/07/04 06:50:26;;;;;;;2.57;2.37;;;27.50;46.30;;;;;;5116865;27;20471;-44
2022/07/04 06:52:52;;;;;;;3.17;2.87;;;27.60;45.90;;;;;;5118757;27;20547;-44
2022/07/04 06:55:18;;;;;;;6.37;2.50;;;27.70;45.80;;;;;;5117574;27;20198;-44
2022/07/04 06:57:43;;;;;;;6.00;2.03;;;27.80;45.20;;;;;;5112529;27;20190;-45
2022/07/04 07:00:10;;;;;;;2.53;2.33;;;27.80;44.80;;;;;;5107712;27;20430;-47
2022/07/04 07:02:37;;;;;;;3.30;2.83;;;27.90;44.50;;;;;;5115113;27;20606;-44
2022/07/04 07:05:04;;;;;;;2.83;2.07;;;27.90;44.70;;;;;;5106155;27;20448;-44
2022/07/04 07:07:30;;;;;;;3.83;2.27;;;27.90;44.70;;;;;;5096040;28;20440;-45
2022/07/04 07:09:56;;;;;;;2.87;2.00;;;27.90;44.60;;;;;;5101690;27;20605;-44
2022/07/04 07:12:23;;;;;;;3.60;2.10;;;27.90;44.70;;;;;;5122942;27;20540;-45
2022/07/04 07:14:50;;;;;;;3.57;2.10;;;27.90;44.60;;;;;;5122702;27;20229;-44
2022/07/04 07:17:16;;;;;;;3.50;2.50;;;28.00;44.70;;;;;;5113685;27;20432;-46
2022/07/04 07:19:42;;;;;;;3.30;2.70;;;28.00;44.80;;;;;;5111391;27;20432;-44
2022/07/04 07:22:12;;;;;;;7.03;2.20;;;28.00;44.60;;;;;;5112077;27;20490;-44
2022/07/04 07:24:38;;;;;;;2.50;2.30;;;28.00;44.50;;;;;;5101421;27;20448;-47
2022/07/04 07:27:04;;;;;;;2.43;2.23;;;28.00;44.80;;;;;;5108337;28;21211;-47
2022/07/04 07:29:30;;;;;;;4.67;2.43;;;28.00;44.70;;;;;;5112063;28;20182;-43
2022/07/04 07:31:56;;;;;;;3.50;2.37;;;28.00;44.70;;;;;;5108838;28;20455;-43
2022/07/04 07:34:22;;;;;;;2.13;2.03;;;28.00;44.70;;;;;;5110573;28;20867;-45
2022/07/04 07:36:47;;;;;;;3.20;2.47;;;28.10;44.70;;;;;;5111866;28;20191;-44
2022/07/04 07:39:13;;;;;;;4.60;2.40;;;28.10;44.60;;;;;;5111217;28;20194;-43
2022/07/04 07:41:38;;;;;;;3.00;2.40;;;28.10;44.40;;;;;;5110689;28;20633;-43
2022/07/04 07:44:04;;;;;;;3.33;1.97;;;28.20;45.20;;;;;;5110996;28;20277;-45
2022/07/04 07:46:30;;;;;;;3.73;2.30;;;28.10;44.60;;;;;;5110952;28;20182;-48
2022/07/04 07:48:56;;;;;;;4.10;2.30;;;28.20;44.60;;;;;;5111299;28;20599;-44
2022/07/04 07:51:21;;;;;;;2.80;2.60;;;28.20;44.30;;;;;;5108979;28;20504;-44
2022/07/04 07:53:47;;;;;;;3.47;2.63;;;28.20;44.20;;;;;;5102720;27;20226;-46
2022/07/04 07:56:13;;;;;;;2.90;2.30;;;28.20;44.70;;;;;;5096535;27;20217;-46
2022/07/04 07:58:38;;;;;;;2.80;1.90;;;28.20;45.10;;;;;;5108093;27;20666;-48
2022/07/04 08:01:04;;;;;;;3.03;2.37;;;28.30;45.00;;;;;;5101021;27;20242;-45
2022/07/04 08:06:15;;;;;;;4.90;2.20;;;28.30;44.00;;;;;;5098153;27;22175;-45
2022/07/04 08:08:41;;;;;;;3.13;2.77;;;28.30;43.80;;;;;;5091073;27;20535;-46
2022/07/04 08:11:08;;;;;;;2.83;2.23;;;28.30;43.60;;;;;;5100480;27;20249;-45
2022/07/04 08:13:34;;;;;;;2.93;2.10;;;28.30;43.70;;;;;;5112280;27;21203;-47
2022/07/04 08:16:00;;;;;;;2.40;2.17;;;28.30;43.50;;;;;;5107414;27;20456;-47
2022/07/04 08:18:25;;;;;;;2.40;2.00;;;28.40;43.60;;;;;;5099905;28;20301;-47
2022/07/04 08:20:51;;;;;;;2.37;2.17;;;28.40;43.80;;;;;;5095113;27;20286;-46
2022/07/04 08:23:17;;;;;;;2.57;2.13;;;28.50;43.90;;;;;;5102727;27;20203;-44
2022/07/04 08:25:43;;;;;;;3.77;2.67;;;28.50;43.80;;;;;;5096806;28;20668;-44
2022/07/04 08:28:08;;;;;;;3.07;2.20;;;28.50;43.90;;;;;;5100411;28;20270;-44
2022/07/04 08:30:34;;;;;;;3.60;2.90;;;28.50;43.90;;;;;;5111178;28;20206;-45
2022/07/04 08:33:00;;;;;;;4.00;2.50;;;28.60;44.20;;;;;;5120444;28;20190;-44
2022/07/04 08:35:26;;;;;;;3.47;2.30;;;28.60;44.30;;;;;;5110229;28;20202;-44
2022/07/04 08:37:55;;;;;;;4.83;3.00;;;28.60;44.10;;;;;;5103778;28;20201;-44
2022/07/04 08:40:26;;;;;;;3.10;2.60;;;28.70;44.20;;;;;;5105890;28;20456;-45
2022/07/04 08:42:52;;;;;;;4.50;2.40;;;28.70;43.90;;;;;;5109400;28;20806;-44
2022/07/04 08:45:28;;;;;;;3.10;2.40;;;28.70;43.90;;;;;;5107685;28;20436;-44
2022/07/04 08:48:04;;;;;;;2.70;2.50;;;28.60;44.40;;;;;;5114838;28;20437;-45
2022/07/04 08:50:41;;;;;;;5.77;2.13;;;28.50;44.50;;;;;;5110099;28;20485;-46
2022/07/04 08:53:11;;;;;;;7.17;2.50;;;28.60;44.50;;;;;;5122012;28;20455;-45
2022/07/04 08:58:27;;;;;;;2.40;2.20;;;28.70;43.40;;;;;;5110451;28;21354;-45
2022/07/04 09:00:54;;;;;;;5.77;2.43;;;28.70;43.60;;;;;;5111908;28;20480;-45
2022/07/04 09:03:21;;;;;;;2.83;2.33;;;28.70;43.80;;;;;;5108670;28;20443;-45
2022/07/04 09:05:47;;;;;;;4.33;2.60;;;28.80;43.70;;;;;;5108685;28;20426;-44
2022/07/04 09:08:12;;;;;;;3.03;2.80;;;28.80;43.50;;;;;;5097442;28;20915;-45
2022/07/04 09:10:39;;;;;;;2.83;2.50;;;28.80;42.60;;;;;;5117058;28;20197;-45
2022/07/04 09:13:06;;;;;;;5.07;2.90;;;28.80;42.10;;;;;;5117581;27;20198;-45
2022/07/04 09:15:33;;;;;;;4.80;2.63;;;28.80;42.30;;;;;;5110979;27;20489;-45
2022/07/04 09:18:00;;;;;;;2.73;2.40;;;28.80;42.60;;;;;;5113775;28;20925;-45
2022/07/04 09:20:27;;;;;;;4.03;2.50;;;28.70;42.80;;;;;;5112873;27;20451;-45
2022/07/04 09:22:54;;;;;;;2.77;2.50;;;28.70;42.80;;;;;;5121981;27;20463;-45
2022/07/04 09:25:21;;;;;;;4.60;2.47;;;28.70;43.00;;;;;;5111152;27;20452;-45
2022/07/04 09:27:48;;;;;;;2.87;2.50;;;28.80;42.90;;;;;;5107964;27;20440;-46
2022/07/04 09:30:17;;;;;;;5.67;2.70;;;28.80;42.60;;;;;;5115177;27;20511;-45
2022/07/04 09:32:46;;;;;;;4.23;2.57;;;28.80;42.50;;;;;;5100358;27;20440;-46
2022/07/04 09:35:21;;;;;;;4.83;2.50;;;28.90;42.30;;;;;;5107106;27;20494;-45
2022/07/04 09:37:53;;;;;;;3.10;2.60;;;29.00;42.10;;;;;;5123666;27;20435;-45
2022/07/04 09:43:19;;;;;;;6.87;2.37;;;29.20;42.00;;;;;;5104350;27;20455;-45
2022/07/04 09:46:02;;;;;;;2.67;2.47;;;29.40;42.10;;;;;;5103637;27;20801;-45
2022/07/04 09:48:50;;;;;;;3.17;2.87;;;29.50;42.00;;;;;;5116823;27;20199;-44
2022/07/04 09:51:39;;;;;;;3.20;2.33;;;29.60;41.60;;;;;;5115064;27;20443;-45
2022/07/04 09:54:16;;;;;;;3.00;2.30;;;29.70;41.60;;;;;;5113838;27;20481;-45
2022/07/04 09:56:47;;;;;;;3.50;2.60;;;29.90;41.60;;;;;;5120801;27;20495;-44
2022/07/04 09:59:13;;;;;;;4.43;2.70;;;29.90;40.90;;;;;;5117738;27;20443;-44
2022/07/04 10:01:39;;;;;;;3.23;2.27;;;29.90;40.80;;;;;;5118505;27;21125;-45
2022/07/04 10:04:06;;;;;;;2.77;2.57;;;30.10;41.10;;;;;;5121242;27;20202;-44
2022/07/04 10:06:33;;;;;;;3.73;2.20;;;30.30;41.90;;;;;;5111881;27;20449;-45
2022/07/04 10:09:13;;;;;;;11.30;2.20;;;30.50;40.10;;;;;;5121626;27;20450;-45
2022/07/04 10:11:42;;;;;;;4.80;2.50;;;30.70;40.60;;;;;;5110306;27;20449;-44
2022/07/04 10:14:10;;;;;;;5.90;2.77;;;30.80;39.80;;;;;;5117416;27;20475;-45
2022/07/04 10:16:38;;;;;;;4.87;2.37;;;30.70;39.40;;;;;;5121587;27;20443;-46
2022/07/04 10:19:04;;;;;;;4.03;2.03;;;30.80;39.70;;;;;;5120392;27;20447;-45
2022/07/04 10:21:31;;;;;;;2.10;2.00;;;31.10;39.80;;;;;;5125081;27;20518;-45
2022/07/04 10:23:57;;;;;;;4.87;2.20;;;31.20;38.20;;;;;;5112898;27;20541;-45
2022/07/04 10:26:23;;;;;;;7.03;2.30;;;30.50;39.70;;;;;;5111872;27;20432;-45
2022/07/04 10:28:52;;;;;;;1.93;1.83;;;30.80;39.50;;;;;;5114888;27;20764;-45
2022/07/04 10:31:20;;;;;;;3.60;1.90;;;31.20;39.10;;;;;;5102641;27;20436;-46
2022/07/04 10:33:46;;;;;;;2.80;1.63;;;31.60;37.40;;;;;;5114797;27;20502;-46
2022/07/04 10:36:22;;;;;;;3.20;2.87;;;31.90;37.00;;;;;;5112183;27;20516;-49
2022/07/04 10:38:50;;;;;;;7.37;3.00;;;32.20;36.60;;;;;;5115360;27;20454;-46
2022/07/04 10:41:18;;;;;;;1.93;1.67;;;32.40;36.70;;;;;;5116374;27;20451;-49
2022/07/04 10:43:59;;;;;;;3.67;2.30;;;32.60;36.30;;;;;;5119826;27;20480;-46
2022/07/04 10:46:36;;;;;;;2.40;2.20;;;32.80;35.80;;;;;;5118320;27;20451;-49
2022/07/04 10:49:17;;;;;;;3.70;2.70;;;32.90;35.80;;;;;;5118669;27;20435;-45
2022/07/04 10:51:56;;;;;;;3.07;2.20;;;33.00;34.10;;;;;;5114664;27;20813;-46
2022/07/04 10:54:35;;;;;;;3.30;2.10;;;33.00;34.20;;;;;;5123333;27;20482;-49
2022/07/04 10:57:14;;;;;;;3.43;2.40;;;33.10;34.30;;;;;;5108247;28;20496;-45
2022/07/04 11:00:01;;;;;;;4.37;2.63;;;33.30;33.90;;;;;;5114836;27;20448;-47
2022/07/04 11:02:34;;;;;;;3.13;2.30;;;33.40;33.80;;;;;;5121772;27;20874;-50
2022/07/04 11:05:06;;;;;;;6.90;2.40;;;33.40;34.20;;;;;;5114384;27;20433;-45
2022/07/04 11:07:37;;;;;;;2.27;2.10;;;33.60;33.70;;;;;;5112750;27;20496;-45
2022/07/04 11:10:12;;;;;;;6.50;2.13;;;33.70;34.80;;;;;;5119456;27;20440;-47
2022/07/04 11:12:53;;;;;;;3.07;1.97;;;33.80;33.30;;;;;;5111135;27;21372;-46
2022/07/04 11:15:25;;;;;;;2.67;1.93;;;33.90;35.10;;;;;;5122346;27;20493;-45
2022/07/04 11:17:51;;;;;;;2.60;1.80;;;34.10;35.10;;;;;;5111789;27;20465;-48
2022/07/04 11:20:21;;;;;;;3.43;2.40;;;34.20;33.70;;;;;;5121825;27;20803;-45
2022/07/04 11:22:47;;;;;;;2.87;2.40;;;34.40;34.20;;;;;;5117244;27;20965;-47
2022/07/04 11:25:13;;;;;;;4.60;2.17;;;34.60;33.50;;;;;;5124248;27;20435;-45
2022/07/04 11:27:40;;;;;;;2.77;2.13;;;34.50;32.00;;;;;;5111412;28;20595;-49
2022/07/04 11:30:07;;;;;;;4.63;2.10;;;34.60;32.00;;;;;;5107861;27;20522;-45
2022/07/04 11:32:33;;;;;;;2.37;2.20;;;34.60;32.50;;;;;;5117490;27;20504;-45
2022/07/04 11:35:00;;;;;;;2.60;1.93;;;34.70;32.00;;;;;;5118921;27;20487;-47
2022/07/04 11:37:26;;;;;;;2.27;2.07;;;34.60;33.60;;;;;;5111221;28;20416;-49
2022/07/04 11:39:53;;;;;;;2.90;2.13;;;34.70;33.60;;;;;;5112116;27;20442;-48
2022/07/04 11:45:06;;;;;;;3.23;2.27;;;34.90;31.40;;;;;;5120691;27;20497;-50
2022/07/04 11:47:36;;;;;;;3.33;2.03;;;35.00;31.50;;;;;;5106231;27;20774;-46
2022/07/04 11:50:11;;;;;;;2.53;2.10;;;35.10;31.70;;;;;;5112269;27;20444;-47
2022/07/04 11:52:42;;;;;;;2.67;2.17;;;35.30;32.80;;;;;;5117850;27;20435;-46
2022/07/04 11:55:10;;;;;;;4.23;2.37;;;35.30;31.20;;;;;;5105568;27;20546;-48
2022/07/04 11:57:41;;;;;;;3.33;2.23;;;35.50;30.30;;;;;;5119594;27;20448;-46
2022/07/04 12:00:15;;;;;;;3.50;2.30;;;35.50;32.10;;;;;;5111815;27;20828;-46
2022/07/04 12:02:41;;;;;;;2.20;2.00;;;35.60;31.40;;;;;;5109247;28;20487;-49
2022/07/04 12:05:09;;;;;;;3.43;2.27;;;35.70;30.00;;;;;;5122570;27;20784;-46
2022/07/04 12:07:39;;;;;;;2.67;2.47;;;35.90;29.60;;;;;;5125981;27;20561;-46
2022/07/04 12:10:24;;;;;;;2.33;2.13;;;35.90;29.70;;;;;;5116873;27;20468;-49
2022/07/04 12:12:53;;;;;;;3.07;2.77;;;36.10;29.60;;;;;;5116084;27;20462;-50
2022/07/04 12:15:20;;;;;;;5.37;2.17;;;36.20;30.60;;;;;;5110258;27;20488;-46
2022/07/04 12:17:54;;;;;;;2.00;1.90;;;36.30;31.00;;;;;;5109241;27;20451;-49
2022/07/04 12:20:23;;;;;;;2.50;2.30;;;36.30;30.00;;;;;;5112449;28;20434;-48
2022/07/04 12:22:56;;;;;;;3.60;2.10;;;36.50;29.60;;;;;;5111316;27;20443;-47
2022/07/04 12:25:23;;;;;;;2.30;2.10;;;36.60;29.90;;;;;;5118777;28;20962;-49
2022/07/04 12:28:01;;;;;;;2.60;2.03;;;36.70;30.40;;;;;;5110753;28;20444;-49
2022/07/04 12:30:29;;;;;;;2.37;2.20;;;36.70;31.00;;;;;;5114721;28;20432;-45
2022/07/04 12:33:08;;;;;;;3.37;2.27;;;36.70;30.00;;;;;;5105486;28;20995;-46
2022/07/04 12:35:47;;;;;;;2.50;2.30;;;36.80;29.70;;;;;;5110165;28;20474;-46
2022/07/04 12:38:12;;;;;;;2.40;2.20;;;36.70;30.00;;;;;;5114652;28;20977;-45
2022/07/04 12:40:55;;;;;;;2.57;2.10;;;36.70;29.10;;;;;;5120468;28;20491;-48
2022/07/04 12:43:23;;;;;;;3.30;2.50;;;36.80;29.60;;;;;;5110395;28;20193;-45
2022/07/04 12:45:54;;;;;;;2.60;2.40;;;36.70;28.80;;;;;;5123239;28;20443;-49
2022/07/04 12:48:29;;;;;;;4.70;2.37;;;36.60;29.40;;;;;;5109790;28;20429;-44
2022/07/04 12:51:08;;;;;;;2.43;2.03;;;36.60;29.10;;;;;;5116272;27;20930;-44
2022/07/04 12:53:38;;;;;;;2.33;1.90;;;36.60;29.20;;;;;;5116117;27;20486;-44
2022/07/04 12:56:03;;;;;;;2.97;2.40;;;36.60;29.70;;;;;;5109492;27;20943;-44
2022/07/04 12:58:29;;;;;;;4.73;1.90;;;36.60;29.40;;;;;;5114334;27;20451;-44
2022/07/04 13:00:55;;;;;;;2.77;1.80;;;36.60;29.00;;;;;;5115573;27;20234;-47
2022/07/04 13:03:20;;;;;;;3.10;2.17;;;36.70;29.20;;;;;;5105292;27;20194;-45
2022/07/04 13:05:46;;;;;;;5.10;2.20;;;36.80;30.00;;;;;;5110180;27;20221;-44
2022/07/04 13:08:12;;;;;;;4.40;2.27;;;37.00;29.80;;;;;;5122308;27;20202;-45